createdAt,value
2023-05-14T00:01:08.045Z,12.50
2023-05-14T00:03:35.469Z,14.93
2023-05-14T00:06:02.965Z,18.33
2023-05-14T00:08:29.949Z,16.87
2023-05-14T00:10:56.682Z,17.48
2023-05-14T00:13:23.925Z,17.50
2023-05-14T00:15:50.779Z,17.40
2023-05-14T00:18:17.896Z,14.27
2023-05-14T00:20:44.670Z,18.70
2023-05-14T00:23:11.697Z,15.13
2023-05-14T00:25:38.694Z,17.73
2023-05-14T00:28:05.765Z,16.40
2023-05-14T00:30:32.728Z,15.23
2023-05-14T00:32:59.734Z,18.37
2023-05-14T00:35:26.564Z,14.67
2023-05-14T00:37:53.776Z,15.70
2023-05-14T00:40:22.948Z,21.57
2023-05-14T00:42:50.468Z,15.37
2023-05-14T00:45:17.345Z,19.13
2023-05-14T00:47:44.492Z,14.57
2023-05-14T00:50:12.245Z,17.73
2023-05-14T00:52:40.154Z,14.97
2023-05-14T00:55:08.316Z,16.40
2023-05-14T00:57:36.411Z,16.53
2023-05-14T01:00:04.669Z,20.00
2023-05-14T01:02:31.734Z,17.87
2023-05-14T01:04:58.691Z,17.27
2023-05-14T01:07:31.460Z,15.60
2023-05-14T01:10:06.251Z,17.40
2023-05-14T01:12:35.927Z,18.40
2023-05-14T01:15:13.158Z,17.90
2023-05-14T01:17:47.058Z,15.13
2023-05-14T01:20:14.534Z,17.77
2023-05-14T01:22:41.510Z,19.20
2023-05-14T01:25:09.016Z,19.17
2023-05-14T01:27:43.879Z,21.70
2023-05-14T01:30:19.725Z,19.73
2023-05-14T01:32:51.074Z,17.67
2023-05-14T01:35:19.967Z,21.37
2023-05-14T01:37:48.320Z,23.60
2023-05-14T01:40:15.630Z,22.50
2023-05-14T01:42:43.871Z,22.77
2023-05-14T01:45:10.867Z,19.17
2023-05-14T01:47:37.943Z,19.10
2023-05-14T01:50:05.484Z,25.90
2023-05-14T01:52:32.506Z,20.23
2023-05-14T01:55:00.041Z,19.27
2023-05-14T01:57:27.055Z,21.83
2023-05-14T01:59:53.892Z,21.47
2023-05-14T02:02:20.997Z,19.50
2023-05-14T02:04:47.904Z,22.90
2023-05-14T02:07:14.907Z,21.67
2023-05-14T02:09:41.786Z,19.03
2023-05-14T02:12:09.497Z,19.40
2023-05-14T02:14:36.230Z,18.80
2023-05-14T02:17:03.609Z,21.60
2023-05-14T02:19:30.345Z,18.97
2023-05-14T02:21:59.539Z,18.33
2023-05-14T02:24:26.242Z,20.77
2023-05-14T02:26:53.308Z,19.53
2023-05-14T02:29:20.436Z,29.40
2023-05-14T02:31:47.420Z,20.53
2023-05-14T02:34:15.562Z,23.37
2023-05-14T02:36:42.722Z,18.63
2023-05-14T02:39:09.476Z,24.40
2023-05-14T02:41:36.470Z,21.80
2023-05-14T02:44:03.298Z,21.00
2023-05-14T02:46:32.097Z,23.63
2023-05-14T02:48:59.103Z,17.87
2023-05-14T02:51:27.036Z,19.73
2023-05-14T02:53:53.825Z,25.13
2023-05-14T02:56:21.211Z,22.27
2023-05-14T02:58:48.087Z,21.53
2023-05-14T03:01:15.157Z,20.37
2023-05-14T03:03:42.460Z,22.47
2023-05-14T03:06:10.299Z,20.70
2023-05-14T03:08:37.174Z,19.33
2023-05-14T03:11:04.273Z,24.37
2023-05-14T03:13:31.025Z,20.97
2023-05-14T03:15:58.035Z,19.57
2023-05-14T03:18:24.901Z,41.57
2023-05-14T03:20:51.998Z,30.57
2023-05-14T03:23:18.716Z,22.80
2023-05-14T03:25:45.766Z,31.27
2023-05-14T03:28:12.514Z,23.87
2023-05-14T03:30:39.710Z,21.73
2023-05-14T03:33:06.868Z,23.80
2023-05-14T03:35:33.942Z,21.43
2023-05-14T03:38:00.833Z,20.40
2023-05-14T03:40:27.917Z,24.70
2023-05-14T03:42:54.713Z,22.33
2023-05-14T03:45:21.870Z,19.23
2023-05-14T03:47:48.682Z,22.60
2023-05-14T03:50:15.822Z,20.47
2023-05-14T03:52:43.525Z,25.87
2023-05-14T03:55:10.755Z,23.47
2023-05-14T03:57:37.667Z,21.17
2023-05-14T04:00:05.374Z,22.13
2023-05-14T04:02:43.555Z,26.73
2023-05-14T04:05:10.792Z,18.70
2023-05-14T04:07:37.622Z,21.53
2023-05-14T04:10:05.156Z,22.43
2023-05-14T04:12:34.530Z,20.83
2023-05-14T04:15:01.920Z,20.77
2023-05-14T04:17:28.786Z,23.63
2023-05-14T04:19:57.032Z,22.37
2023-05-14T04:22:24.377Z,20.10
2023-05-14T04:24:52.208Z,19.60
2023-05-14T04:27:22.415Z,24.73
2023-05-14T04:29:50.449Z,19.53
2023-05-14T04:32:17.766Z,22.20
2023-05-14T04:34:44.858Z,19.43
2023-05-14T04:37:11.636Z,20.83
2023-05-14T04:39:39.693Z,21.37
2023-05-14T04:42:06.881Z,20.20
2023-05-14T04:44:37.665Z,23.60
2023-05-14T04:47:04.705Z,23.30
2023-05-14T04:49:31.961Z,25.40
2023-05-14T04:51:58.824Z,26.13
2023-05-14T04:54:26.129Z,23.42
2023-05-14T04:56:52.899Z,25.20
2023-05-14T04:59:19.972Z,25.50
2023-05-14T05:01:46.846Z,29.45
2023-05-14T05:04:14.097Z,25.27
2023-05-14T05:06:41.016Z,23.00
2023-05-14T05:09:09.493Z,25.63
2023-05-14T05:11:36.215Z,26.75
2023-05-14T05:14:03.374Z,22.27
2023-05-14T05:16:30.322Z,24.10
2023-05-14T05:18:57.336Z,28.80
2023-05-14T05:21:24.277Z,19.63
2023-05-14T05:23:51.277Z,20.15
2023-05-14T05:26:18.011Z,29.48
2023-05-14T05:28:44.989Z,25.20
2023-05-14T05:31:11.792Z,25.23
2023-05-14T05:33:38.942Z,20.00
2023-05-14T05:36:05.799Z,22.92
2023-05-14T05:38:32.888Z,20.27
2023-05-14T05:40:59.671Z,21.73
2023-05-14T05:43:28.505Z,16.58
2023-05-14T05:45:55.577Z,18.80
2023-05-14T05:48:22.591Z,18.05
2023-05-14T05:50:50.257Z,18.63
2023-05-14T05:53:17.597Z,27.23
2023-05-14T05:55:44.493Z,15.98
2023-05-14T05:58:11.576Z,18.52
2023-05-14T06:00:38.306Z,15.20
2023-05-14T06:03:05.509Z,16.30
2023-05-14T06:05:32.290Z,17.00
2023-05-14T06:07:59.311Z,15.18
2023-05-14T06:10:26.254Z,13.63
2023-05-14T06:12:53.415Z,13.30
2023-05-14T06:15:20.348Z,16.48
2023-05-14T06:17:47.428Z,14.95
2023-05-14T06:20:14.273Z,13.40
2023-05-14T06:22:41.264Z,19.10
2023-05-14T06:25:08.359Z,14.82
2023-05-14T06:27:35.417Z,15.40
2023-05-14T06:30:02.203Z,13.43
2023-05-14T06:32:29.441Z,12.10
2023-05-14T06:34:56.251Z,12.40
2023-05-14T06:37:23.266Z,16.83
2023-05-14T06:39:50.510Z,12.20
2023-05-14T06:42:17.825Z,11.35
2023-05-14T06:44:45.526Z,14.05
2023-05-14T06:47:12.554Z,12.35
2023-05-14T06:49:39.500Z,16.30
2023-05-14T06:52:06.845Z,11.88
2023-05-14T06:54:33.632Z,13.57
2023-05-14T06:57:00.576Z,12.07
2023-05-14T06:59:27.434Z,9.45
2023-05-14T07:01:54.534Z,10.43
2023-05-14T07:04:21.436Z,12.38
2023-05-14T07:06:48.516Z,13.00
2023-05-14T07:09:16.503Z,14.80
2023-05-14T07:11:43.477Z,12.40
2023-05-14T07:14:10.586Z,11.60
2023-05-14T07:16:37.694Z,11.13
2023-05-14T07:19:04.651Z,10.30
2023-05-14T07:21:32.526Z,12.73
2023-05-14T07:23:59.209Z,10.68
2023-05-14T07:26:26.460Z,9.55
2023-05-14T07:28:53.182Z,11.82
2023-05-14T07:31:20.472Z,15.80
2023-05-14T07:33:47.213Z,10.52
2023-05-14T07:36:14.335Z,7.93
2023-05-14T07:38:41.365Z,9.48
2023-05-14T07:41:08.335Z,12.75
2023-05-14T07:43:35.117Z,8.68
2023-05-14T07:46:02.072Z,11.15
2023-05-14T07:48:28.888Z,9.45
2023-05-14T07:50:56.009Z,8.68
2023-05-14T07:53:23.502Z,9.13
2023-05-14T07:55:50.591Z,10.65
2023-05-14T07:58:17.451Z,12.25
2023-05-14T08:00:44.564Z,7.35
2023-05-14T08:03:11.403Z,8.95
2023-05-14T08:05:38.421Z,10.75
2023-05-14T08:08:05.212Z,7.97
2023-05-14T08:10:32.255Z,8.43
2023-05-14T08:12:59.048Z,10.93
2023-05-14T08:15:27.864Z,11.13
2023-05-14T08:17:55.008Z,6.65
2023-05-14T08:20:22.731Z,14.88
2023-05-14T08:22:49.802Z,11.02
2023-05-14T08:25:16.902Z,10.85
2023-05-14T08:27:43.661Z,9.65
2023-05-14T08:30:11.150Z,12.30
2023-05-14T08:32:38.661Z,11.73
2023-05-14T08:35:06.792Z,7.93
2023-05-14T08:37:33.588Z,8.10
2023-05-14T08:40:00.684Z,5.70
2023-05-14T08:42:29.028Z,6.38
2023-05-14T08:45:03.784Z,7.82
2023-05-14T08:47:30.964Z,14.30
2023-05-14T08:50:08.334Z,10.50
2023-05-14T08:52:35.495Z,11.48
2023-05-14T08:55:06.566Z,4.65
2023-05-14T08:57:34.470Z,5.93
2023-05-14T09:00:08.246Z,14.25
2023-05-14T09:02:36.632Z,7.82
2023-05-14T09:05:04.305Z,9.57
2023-05-14T09:07:31.375Z,7.15
2023-05-14T09:09:59.258Z,14.32
2023-05-14T09:12:26.198Z,8.60
2023-05-14T09:14:53.469Z,9.50
2023-05-14T09:17:20.615Z,8.45
2023-05-14T09:19:52.969Z,8.55
2023-05-14T09:22:20.451Z,8.45
2023-05-14T09:25:02.454Z,7.28
2023-05-14T09:27:31.657Z,6.97
2023-05-14T09:30:28.078Z,11.57
2023-05-14T09:32:55.150Z,5.05
2023-05-14T09:35:24.350Z,7.30
2023-05-14T09:37:53.590Z,7.50
2023-05-14T09:40:23.341Z,9.32
2023-05-14T09:42:50.897Z,7.28
2023-05-14T09:45:18.484Z,9.23
2023-05-14T09:47:45.710Z,14.25
2023-05-14T09:50:13.141Z,11.15
2023-05-14T09:52:40.173Z,7.70
2023-05-14T09:55:08.027Z,9.52
2023-05-14T09:57:35.427Z,4.45
2023-05-14T10:00:03.815Z,8.20
2023-05-14T10:02:37.748Z,15.52
2023-05-14T10:05:06.837Z,6.93
2023-05-14T10:07:41.710Z,7.57
2023-05-14T10:10:13.025Z,8.10
2023-05-14T10:12:40.716Z,8.75
2023-05-14T10:15:19.629Z,6.68
2023-05-14T10:17:49.956Z,14.88
2023-05-14T10:20:17.676Z,8.32
2023-05-14T10:22:45.201Z,10.50
2023-05-14T10:25:12.537Z,7.60
2023-05-14T10:27:40.550Z,12.43
2023-05-14T10:30:12.699Z,16.17
2023-05-14T10:32:41.844Z,16.25
2023-05-14T10:35:22.174Z,16.02
2023-05-14T10:37:51.591Z,7.82
2023-05-14T10:40:19.299Z,9.38
2023-05-14T10:42:46.765Z,6.10
2023-05-14T10:45:15.260Z,6.32
2023-05-14T10:47:44.402Z,6.70
2023-05-14T10:50:14.529Z,10.55
2023-05-14T10:52:45.716Z,13.73
2023-05-14T10:55:14.641Z,12.02
2023-05-14T10:57:43.550Z,7.43
2023-05-14T11:00:11.453Z,6.22
2023-05-14T11:02:40.311Z,12.68
2023-05-14T11:05:11.102Z,10.10
2023-05-14T11:07:40.606Z,6.05
2023-05-14T11:10:09.249Z,14.35
2023-05-14T11:12:38.504Z,8.80
2023-05-14T11:15:09.330Z,6.85
2023-05-14T11:17:37.806Z,8.70
2023-05-14T11:20:06.471Z,5.57
2023-05-14T11:22:34.442Z,13.38
2023-05-14T11:25:01.608Z,9.13
2023-05-14T11:27:28.462Z,8.30
2023-05-14T11:29:58.201Z,6.78
2023-05-14T11:32:26.010Z,11.50
2023-05-14T11:34:53.159Z,8.48
2023-05-14T11:37:20.304Z,9.07
2023-05-14T11:39:53.467Z,5.13
2023-05-14T11:42:21.450Z,8.75
2023-05-14T11:44:51.543Z,6.10
2023-05-14T11:47:20.750Z,9.32
2023-05-14T11:49:49.379Z,15.35
2023-05-14T11:52:19.434Z,7.53
2023-05-14T11:54:47.541Z,10.90
2023-05-14T11:57:17.741Z,11.35
2023-05-14T11:59:45.876Z,12.23
2023-05-14T12:02:16.889Z,10.50
2023-05-14T12:04:44.908Z,8.38
2023-05-14T12:07:15.655Z,6.03
2023-05-14T12:09:49.578Z,13.23
2023-05-14T12:12:21.799Z,6.82
2023-05-14T12:14:50.047Z,9.73
2023-05-14T12:17:20.845Z,11.88
2023-05-14T12:19:49.994Z,8.25
2023-05-14T12:22:18.911Z,19.55
2023-05-14T12:24:56.926Z,7.03
2023-05-14T12:27:25.037Z,8.85
2023-05-14T12:30:16.819Z,8.13
2023-05-14T12:32:51.504Z,7.55
2023-05-14T12:35:19.113Z,11.55
2023-05-14T12:37:46.044Z,5.40
2023-05-14T12:40:13.388Z,7.82
2023-05-14T12:42:40.375Z,6.82
2023-05-14T12:45:08.650Z,9.77
2023-05-14T12:47:36.917Z,5.10
2023-05-14T12:50:04.848Z,7.03
2023-05-14T12:55:01.778Z,9.90
2023-05-14T12:57:29.823Z,10.57
2023-05-14T12:59:57.686Z,6.60
2023-05-14T13:02:24.464Z,5.18
2023-05-14T13:04:51.566Z,11.80
2023-05-14T13:07:18.479Z,10.60
2023-05-14T13:09:45.583Z,12.68
2023-05-14T13:12:12.336Z,10.60
2023-05-14T13:14:39.333Z,6.90
2023-05-14T13:17:08.030Z,6.80
2023-05-14T13:19:35.441Z,9.27
2023-05-14T13:22:02.309Z,7.65
2023-05-14T13:24:29.365Z,10.57
2023-05-14T13:26:56.136Z,9.02
2023-05-14T13:29:24.439Z,18.73
2023-05-14T13:31:51.233Z,7.25
2023-05-14T13:34:18.611Z,8.55
2023-05-14T13:36:46.905Z,8.48
2023-05-14T13:39:14.612Z,8.70
2023-05-14T13:41:41.752Z,6.85
2023-05-14T13:44:09.805Z,4.63
2023-05-14T13:46:36.760Z,8.60
2023-05-14T13:49:03.747Z,13.70
2023-05-14T13:51:31.279Z,11.65
2023-05-14T13:53:58.294Z,11.57
2023-05-14T13:56:25.088Z,12.20
2023-05-14T13:58:52.797Z,11.50
2023-05-14T14:01:19.637Z,7.75
2023-05-14T14:03:46.605Z,8.15
2023-05-14T14:06:13.399Z,10.18
2023-05-14T14:08:40.680Z,5.75
2023-05-14T14:11:07.438Z,9.02
2023-05-14T14:13:34.498Z,10.13
2023-05-14T14:16:03.079Z,9.15
2023-05-14T14:18:30.347Z,8.45
2023-05-14T14:20:57.190Z,7.45
2023-05-14T14:23:24.274Z,11.93
2023-05-14T14:25:51.039Z,5.05
2023-05-14T14:28:18.972Z,9.60
2023-05-14T14:30:45.814Z,7.38
2023-05-14T14:33:12.943Z,7.40
2023-05-14T14:35:40.033Z,11.02
2023-05-14T14:38:06.983Z,13.45
2023-05-14T14:40:34.479Z,7.47
2023-05-14T14:43:02.181Z,8.88
2023-05-14T14:45:29.120Z,9.15
2023-05-14T14:48:24.206Z,14.45
2023-05-14T14:50:51.986Z,10.18
2023-05-14T14:53:22.686Z,13.85
2023-05-14T14:55:50.224Z,8.70
2023-05-14T14:58:18.733Z,6.00
2023-05-14T15:00:45.779Z,10.77
2023-05-14T15:03:14.900Z,9.77
2023-05-14T15:05:41.887Z,8.45
2023-05-14T15:08:08.893Z,5.75
2023-05-14T15:10:38.187Z,8.68
2023-05-14T15:13:06.405Z,17.45
2023-05-14T15:15:34.640Z,9.35
2023-05-14T15:18:02.320Z,7.38
2023-05-14T15:20:29.096Z,6.28
2023-05-14T15:22:56.254Z,8.30
2023-05-14T15:25:23.919Z,12.23
2023-05-14T15:27:51.254Z,12.18
2023-05-14T15:30:18.442Z,11.23
2023-05-14T15:32:46.573Z,12.93
2023-05-14T15:35:13.403Z,8.73
2023-05-14T15:37:42.323Z,9.82
2023-05-14T15:40:10.416Z,6.38
2023-05-14T15:42:38.726Z,6.22
2023-05-14T15:45:05.861Z,5.93
2023-05-14T15:47:32.952Z,6.40
2023-05-14T15:49:59.976Z,8.27
2023-05-14T15:52:27.147Z,7.68
2023-05-14T15:54:55.927Z,9.70
2023-05-14T15:57:23.489Z,10.23
2023-05-14T15:59:51.367Z,9.27
2023-05-14T16:02:18.484Z,11.85
2023-05-14T16:04:45.447Z,6.43
2023-05-14T16:07:13.328Z,16.73
2023-05-14T16:09:40.185Z,8.52
2023-05-14T16:12:08.196Z,10.73
2023-05-14T16:14:35.667Z,9.75
2023-05-14T16:17:02.788Z,9.25
2023-05-14T16:19:29.589Z,10.68
2023-05-14T16:21:56.729Z,7.18
2023-05-14T16:24:23.548Z,13.45
2023-05-14T16:26:50.615Z,8.60
2023-05-14T16:29:17.748Z,6.93
2023-05-14T16:31:44.885Z,7.80
2023-05-14T16:34:11.754Z,7.93
2023-05-14T16:36:39.152Z,7.40
2023-05-14T16:39:07.801Z,5.63
2023-05-14T16:41:35.906Z,9.88
2023-05-14T16:44:02.763Z,8.38
2023-05-14T16:46:30.545Z,12.40
2023-05-14T16:48:57.746Z,16.83
2023-05-14T16:51:24.738Z,5.20
2023-05-14T16:53:52.050Z,10.98
2023-05-14T16:56:19.521Z,9.05
2023-05-14T16:58:46.179Z,6.15
2023-05-14T17:01:13.292Z,8.63
2023-05-14T17:03:40.664Z,6.07
2023-05-14T17:06:07.694Z,6.22
2023-05-14T17:08:35.572Z,13.15
2023-05-14T17:11:05.690Z,9.95
2023-05-14T17:13:33.211Z,12.10
2023-05-14T17:16:14.750Z,10.80
2023-05-14T17:18:41.536Z,5.60
2023-05-14T17:21:09.047Z,7.20
2023-05-14T17:23:35.805Z,6.28
2023-05-14T17:26:02.900Z,7.97
2023-05-14T17:28:30.082Z,7.80
2023-05-14T17:30:57.182Z,7.45
2023-05-14T17:33:24.227Z,9.68
2023-05-14T17:35:51.885Z,8.45
2023-05-14T17:38:18.581Z,7.88
2023-05-14T17:40:45.703Z,10.52
2023-05-14T17:43:12.523Z,6.25
2023-05-14T17:45:53.309Z,12.63
2023-05-14T17:48:22.469Z,10.75
2023-05-14T17:50:51.141Z,6.43
2023-05-14T17:53:18.021Z,5.20
2023-05-14T17:55:45.093Z,6.50
2023-05-14T17:58:14.285Z,7.75
2023-05-14T18:00:42.014Z,8.95
2023-05-14T18:03:09.111Z,6.15
2023-05-14T18:05:36.495Z,5.07
2023-05-14T18:08:03.332Z,8.30
2023-05-14T18:10:30.570Z,7.20
2023-05-14T18:12:57.426Z,6.05
2023-05-14T18:15:25.852Z,3.92
2023-05-14T18:17:53.164Z,10.52
2023-05-14T18:20:20.637Z,14.48
2023-05-14T18:22:47.720Z,13.40
2023-05-14T18:25:14.991Z,6.30
2023-05-14T18:27:44.498Z,10.88
2023-05-14T18:30:16.081Z,10.18
2023-05-14T18:32:44.667Z,10.43
2023-05-14T18:35:13.449Z,12.52
2023-05-14T18:37:40.875Z,15.15
2023-05-14T18:40:08.711Z,21.65
2023-05-14T18:42:35.559Z,29.70
2023-05-14T18:45:04.197Z,25.23
2023-05-14T18:47:31.836Z,66.18
2023-05-14T18:50:01.621Z,43.65
2023-05-14T18:52:28.660Z,40.97
2023-05-14T18:54:55.720Z,34.58
2023-05-14T18:57:22.665Z,30.70
2023-05-14T18:59:49.620Z,30.65
2023-05-14T19:02:16.623Z,23.60
2023-05-14T19:04:52.493Z,34.47
2023-05-14T19:07:21.085Z,26.95
2023-05-14T19:09:48.341Z,22.42
2023-05-14T19:12:15.430Z,25.00
2023-05-14T19:14:42.560Z,31.58
2023-05-14T19:17:09.453Z,37.58
2023-05-14T19:19:37.191Z,22.83
2023-05-14T19:22:03.948Z,32.05
2023-05-14T19:24:31.060Z,36.53
2023-05-14T19:26:58.000Z,27.15
2023-05-14T19:29:25.188Z,22.10
2023-05-14T19:31:51.993Z,22.77
2023-05-14T19:34:19.191Z,24.30
2023-05-14T19:36:45.917Z,24.60
2023-05-14T19:39:12.875Z,32.10
2023-05-14T19:41:39.639Z,39.45
2023-05-14T19:44:06.634Z,45.38
2023-05-14T19:46:33.555Z,37.08
2023-05-14T19:49:00.699Z,37.75
2023-05-14T19:51:27.554Z,33.22
2023-05-14T19:53:54.557Z,37.25
2023-05-14T19:56:21.697Z,27.33
2023-05-14T19:58:48.665Z,14.88
2023-05-14T20:01:15.490Z,12.65
2023-05-14T20:03:42.551Z,13.07
2023-05-14T20:06:09.299Z,14.02
2023-05-14T20:08:36.534Z,25.88
2023-05-14T20:11:03.374Z,27.65
2023-05-14T20:13:33.150Z,19.13
2023-05-14T20:16:00.079Z,21.73
2023-05-14T20:18:27.217Z,18.30
2023-05-14T20:20:54.654Z,15.45
2023-05-14T20:23:21.775Z,18.08
2023-05-14T20:25:48.509Z,16.90
2023-05-14T20:28:15.556Z,12.45
2023-05-14T20:30:42.479Z,17.73
2023-05-14T20:33:09.675Z,16.58
2023-05-14T20:35:36.661Z,11.55
2023-05-14T20:38:03.785Z,15.15
2023-05-14T20:40:32.694Z,12.77
2023-05-14T20:42:59.759Z,11.20
2023-05-14T20:45:27.062Z,10.10
2023-05-14T20:47:54.348Z,9.07
2023-05-14T20:50:22.513Z,9.80
2023-05-14T20:52:49.510Z,12.73
2023-05-14T20:55:16.387Z,14.80
2023-05-14T20:57:43.670Z,10.45
2023-05-14T21:00:11.214Z,16.30
2023-05-14T21:02:38.396Z,9.68
2023-05-14T21:05:06.579Z,8.45
2023-05-14T21:07:33.702Z,10.10
2023-05-14T21:10:01.808Z,6.75
2023-05-14T21:12:28.962Z,10.77
2023-05-14T21:14:55.712Z,7.78
2023-05-14T21:17:22.988Z,8.65
2023-05-14T21:19:49.713Z,10.88
2023-05-14T21:22:16.756Z,17.95
2023-05-14T21:24:43.530Z,12.85
2023-05-14T21:27:10.706Z,15.23
2023-05-14T21:29:37.460Z,18.75
2023-05-14T21:32:04.908Z,16.60
2023-05-14T21:34:32.170Z,16.92
2023-05-14T21:36:59.324Z,12.52
2023-05-14T21:39:26.058Z,9.63
2023-05-14T21:41:53.058Z,16.75
2023-05-14T21:44:19.802Z,11.35
2023-05-14T21:46:47.413Z,10.98
2023-05-14T21:49:14.113Z,16.35
2023-05-14T21:51:41.263Z,22.48
2023-05-14T21:54:08.129Z,17.05
2023-05-14T21:56:37.118Z,27.52
2023-05-14T21:59:04.745Z,31.55
2023-05-14T22:01:33.762Z,39.17
2023-05-14T22:04:02.429Z,38.92
2023-05-14T22:06:29.482Z,38.25
2023-05-14T22:08:56.196Z,42.15
2023-05-14T22:11:23.209Z,48.17
2023-05-14T22:13:49.954Z,39.47
2023-05-14T22:16:17.079Z,36.75
2023-05-14T22:18:44.096Z,40.67
2023-05-14T22:21:11.095Z,34.20
2023-05-14T22:23:37.852Z,33.95
2023-05-14T22:26:04.990Z,35.85
2023-05-14T22:28:31.818Z,27.77
2023-05-14T22:30:59.783Z,29.27
2023-05-14T22:33:26.722Z,30.77
2023-05-14T22:35:53.676Z,28.85
2023-05-14T22:38:21.202Z,33.53
2023-05-14T22:40:48.151Z,25.08
2023-05-14T22:43:14.951Z,24.10
2023-05-14T22:45:43.234Z,27.58
2023-05-14T22:48:09.934Z,22.40
2023-05-14T22:50:37.163Z,25.85
2023-05-14T22:53:03.981Z,27.20
2023-05-14T22:55:30.969Z,18.38
2023-05-14T22:57:57.714Z,18.48
2023-05-14T23:00:25.203Z,14.25
2023-05-14T23:02:52.053Z,14.18
2023-05-14T23:05:19.093Z,12.00
2023-05-14T23:07:45.928Z,11.98
2023-05-14T23:10:13.022Z,15.93
2023-05-14T23:12:39.692Z,15.80
2023-05-14T23:15:07.111Z,12.60
2023-05-14T23:17:33.911Z,18.73
2023-05-14T23:20:01.089Z,17.00
2023-05-14T23:22:27.947Z,13.02
2023-05-14T23:24:54.943Z,13.18
2023-05-14T23:27:22.151Z,10.88
2023-05-14T23:29:49.215Z,16.17
2023-05-14T23:32:15.929Z,15.80
2023-05-14T23:34:42.970Z,11.90
2023-05-14T23:37:10.033Z,12.00
2023-05-14T23:39:37.075Z,13.82
2023-05-14T23:42:03.794Z,10.95
2023-05-14T23:44:30.751Z,10.35
2023-05-14T23:46:57.633Z,11.30
2023-05-14T23:49:24.653Z,11.55
2023-05-14T23:51:51.363Z,10.98
2023-05-14T23:54:18.514Z,13.75
2023-05-14T23:56:45.261Z,10.95
2023-05-14T23:59:12.357Z,14.65
